createdAt,value
2019-03-15T00:03:13.089Z,95278.00
2019-03-15T00:08:15.599Z,95265.00
2019-03-15T00:13:18.081Z,95272.00
2019-03-15T00:18:20.498Z,95292.00
2019-03-15T00:23:22.985Z,95293.00
2019-03-15T00:28:27.343Z,95305.00
2019-03-15T00:33:29.933Z,95289.00
2019-03-15T00:38:32.491Z,95306.00
2019-03-15T00:43:36.128Z,95294.00
2019-03-15T00:48:38.716Z,95309.00
2019-03-15T00:53:41.459Z,95298.00
2019-03-15T00:58:44.829Z,95301.00
2019-03-15T01:03:47.385Z,95299.00
2019-03-15T01:08:49.839Z,95311.00
2019-03-15T01:13:52.434Z,95316.00
2019-03-15T01:18:54.882Z,95318.00
2019-03-15T01:23:57.374Z,95305.00
2019-03-15T01:29:00.812Z,95325.00
2019-03-15T01:34:04.020Z,95313.00
2019-03-15T01:39:07.033Z,95323.00
2019-03-15T01:44:09.813Z,95332.00
2019-03-15T01:49:12.266Z,95339.00
2019-03-15T01:54:14.708Z,95353.00
2019-03-15T01:59:17.307Z,95359.00
2019-03-15T02:04:19.979Z,95361.00
2019-03-15T02:09:22.537Z,95361.00
2019-03-15T02:14:24.987Z,95368.00
2019-03-15T02:19:27.471Z,95369.00
2019-03-15T02:24:29.881Z,95375.00
2019-03-15T02:29:32.431Z,95380.00
2019-03-15T02:34:34.912Z,95393.00
2019-03-15T02:39:37.332Z,95387.00
2019-03-15T02:44:39.799Z,95386.00
2019-03-15T02:49:42.250Z,95399.00
2019-03-15T02:54:44.813Z,95392.00
2019-03-15T02:59:48.559Z,95401.00
2019-03-15T03:04:51.369Z,95423.00
2019-03-15T03:09:53.864Z,95433.00
2019-03-15T03:14:56.226Z,95443.00
2019-03-15T03:19:58.630Z,95454.00
2019-03-15T03:25:01.153Z,95454.00
2019-03-15T03:30:04.388Z,95454.00
2019-03-15T03:35:09.540Z,95447.00
2019-03-15T03:40:11.207Z,95453.00
2019-03-15T03:45:13.637Z,95474.00
2019-03-15T03:50:16.102Z,95464.00
2019-03-15T03:55:19.481Z,95466.00
2019-03-15T04:00:22.688Z,95477.00
2019-03-15T04:05:26.295Z,95450.00
2019-03-15T04:10:29.105Z,95472.00
2019-03-15T04:15:33.045Z,95454.00
2019-03-15T04:20:35.572Z,95467.00
2019-03-15T04:25:40.529Z,95478.00
2019-03-15T04:30:42.921Z,95476.00
2019-03-15T04:35:45.357Z,95482.00
2019-03-15T04:40:48.812Z,95495.00
2019-03-15T04:45:51.385Z,95492.00
2019-03-15T04:50:53.912Z,95485.00
2019-03-15T05:01:43.020Z,95500.00
2019-03-15T05:06:45.613Z,95495.00
2019-03-15T05:11:48.121Z,95485.00
2019-03-15T05:16:50.594Z,95478.00
2019-03-15T05:21:53.157Z,95486.00
2019-03-15T05:26:55.822Z,95505.00
2019-03-15T05:31:58.373Z,95515.00
2019-03-15T05:37:01.049Z,95520.00
2019-03-15T05:42:04.380Z,95522.00
2019-03-15T05:47:07.797Z,95526.00
2019-03-15T05:52:11.160Z,95516.00
2019-03-15T05:57:13.699Z,95532.00
2019-03-15T06:02:17.954Z,95519.00
2019-03-15T06:07:20.736Z,95541.00
2019-03-15T06:12:23.552Z,95524.00
2019-03-15T06:17:26.006Z,95537.00
2019-03-15T06:22:28.616Z,95538.00
2019-03-15T06:27:31.357Z,95543.00
2019-03-15T06:32:34.445Z,95528.00
2019-03-15T06:37:37.065Z,95520.00
2019-03-15T06:42:40.215Z,95523.00
2019-03-15T06:47:42.695Z,95525.00
2019-03-15T06:52:45.116Z,95530.00
2019-03-15T06:57:47.626Z,95541.00
2019-03-15T07:02:50.076Z,95558.00
2019-03-15T07:07:52.924Z,95554.00
2019-03-15T07:12:55.421Z,95558.00
2019-03-15T07:17:57.963Z,95565.00
2019-03-15T07:23:00.843Z,95557.00
2019-03-15T07:28:03.301Z,95564.00
2019-03-15T07:33:05.729Z,95553.00
2019-03-15T07:38:08.392Z,95560.00
2019-03-15T07:43:10.872Z,95568.00
2019-03-15T07:48:22.239Z,95575.00
2019-03-15T07:53:18.003Z,95557.00
2019-03-15T07:58:20.708Z,95542.00
2019-03-15T08:03:23.400Z,95544.00
2019-03-15T08:08:26.240Z,95542.00
2019-03-15T08:13:28.681Z,95532.00
2019-03-15T08:18:31.089Z,95542.00
2019-03-15T08:23:33.488Z,95558.00
2019-03-15T08:28:36.344Z,95560.00
2019-03-15T08:33:39.279Z,95564.00
2019-03-15T08:38:47.865Z,95577.00
2019-03-15T08:43:47.475Z,95576.00
2019-03-15T08:48:50.153Z,95583.00
2019-03-15T08:53:52.679Z,95584.00
2019-03-15T08:58:55.101Z,95596.00
2019-03-15T09:03:57.649Z,95572.00
2019-03-15T09:14:46.504Z,95562.00
2019-03-15T09:19:49.094Z,95570.00
2019-03-15T09:24:51.563Z,95580.00
2019-03-15T09:29:54.399Z,95568.00
2019-03-15T09:34:56.881Z,95560.00
2019-03-15T09:40:00.436Z,95559.00
2019-03-15T09:45:03.306Z,95538.00
2019-03-15T09:50:21.112Z,95548.00
2019-03-15T09:55:13.681Z,95527.00
2019-03-15T10:00:16.338Z,95544.00
2019-03-15T10:05:18.925Z,95543.00
2019-03-15T10:10:21.711Z,95542.00
2019-03-15T10:15:26.568Z,95525.00
2019-03-15T10:20:29.714Z,95532.00
2019-03-15T10:25:45.683Z,95529.00
2019-03-15T10:30:36.670Z,95512.00
2019-03-15T10:35:39.091Z,95515.00
2019-03-15T10:40:41.952Z,95516.00
2019-03-15T10:45:44.872Z,95521.00
2019-03-15T10:50:47.254Z,95498.00
2019-03-15T10:55:59.566Z,95509.00
2019-03-15T11:00:54.186Z,95499.00
2019-03-15T11:05:56.639Z,95508.00
2019-03-15T11:10:59.380Z,95495.00
2019-03-15T11:16:02.001Z,95482.00
2019-03-15T11:21:04.593Z,95484.00
2019-03-15T11:26:13.574Z,95478.00
2019-03-15T11:31:12.092Z,95450.00
2019-03-15T11:36:14.907Z,95463.00
2019-03-15T11:41:17.976Z,95441.00
2019-03-15T11:46:20.457Z,95437.00
2019-03-15T11:51:22.875Z,95433.00
2019-03-15T11:56:27.242Z,95420.00
2019-03-15T12:01:29.636Z,95413.00
2019-03-15T12:06:32.305Z,95412.00
2019-03-15T12:11:35.217Z,95393.00
2019-03-15T12:16:37.807Z,95396.00
2019-03-15T12:22:05.318Z,95404.00
2019-03-15T12:26:58.804Z,95387.00
2019-03-15T12:32:01.609Z,95374.00
2019-03-15T12:37:04.102Z,95390.00
2019-03-15T12:42:09.888Z,95381.00
2019-03-15T12:47:12.971Z,95385.00
2019-03-15T12:52:16.259Z,95374.00
2019-03-15T12:57:18.639Z,95370.00
2019-03-15T13:02:21.073Z,95378.00
2019-03-15T13:07:23.452Z,95370.00
2019-03-15T13:12:26.188Z,95348.00
2019-03-15T13:17:28.632Z,95339.00
2019-03-15T13:22:30.993Z,95356.00
2019-03-15T13:27:33.730Z,95359.00
2019-03-15T13:32:36.148Z,95373.00
2019-03-15T13:37:42.504Z,95365.00
2019-03-15T13:42:44.831Z,95328.00
2019-03-15T13:47:47.510Z,95372.00
2019-03-15T13:52:49.994Z,95365.00
2019-03-15T13:57:56.004Z,95361.00
2019-03-15T14:02:58.276Z,95362.00
2019-03-15T14:08:11.195Z,95363.00
2019-03-15T14:13:07.028Z,95352.00
2019-03-15T14:18:09.537Z,95371.00
2019-03-15T14:23:12.033Z,95357.00
2019-03-15T14:28:14.630Z,95351.00
2019-03-15T14:33:17.761Z,95360.00
2019-03-15T14:38:21.332Z,95332.00
2019-03-15T14:43:24.050Z,95346.00
2019-03-15T14:48:26.392Z,95346.00
2019-03-15T14:53:28.855Z,95341.00
2019-03-15T14:58:31.435Z,95347.00
2019-03-15T15:03:35.097Z,95346.00
2019-03-15T15:08:37.572Z,95343.00
2019-03-15T15:13:40.732Z,95343.00
2019-03-15T15:18:43.372Z,95333.00
2019-03-15T15:23:48.097Z,95338.00
2019-03-15T15:28:51.447Z,95333.00
2019-03-15T15:33:53.859Z,95340.00
2019-03-15T15:38:56.625Z,95356.00
2019-03-15T15:43:59.265Z,95356.00
2019-03-15T15:49:03.062Z,95355.00
2019-03-15T15:54:06.556Z,95364.00
2019-03-15T15:59:10.522Z,95359.00
2019-03-15T16:04:15.158Z,95302.00
2019-03-15T16:09:18.874Z,95339.00
2019-03-15T16:14:22.153Z,95342.00
2019-03-15T16:19:24.661Z,95354.00
2019-03-15T16:24:27.519Z,95343.00
2019-03-15T16:29:29.811Z,95326.00
2019-03-15T16:34:32.264Z,95351.00
2019-03-15T16:39:35.034Z,95344.00
2019-03-15T16:44:37.908Z,95352.00
2019-03-15T16:49:41.093Z,95328.00
2019-03-15T16:54:43.704Z,95342.00
2019-03-15T16:59:46.676Z,95362.00
2019-03-15T17:04:49.412Z,95368.00
2019-03-15T17:09:52.172Z,95378.00
2019-03-15T17:14:54.793Z,95339.00
2019-03-15T17:19:57.740Z,95384.00
2019-03-15T17:25:01.557Z,95393.00
2019-03-15T17:30:05.469Z,95387.00
2019-03-15T17:35:09.670Z,95390.00
2019-03-15T17:40:12.420Z,95394.00
2019-03-15T17:45:15.186Z,95409.00
2019-03-15T17:50:18.428Z,95394.00
2019-03-15T17:55:21.028Z,95395.00
2019-03-15T18:00:42.002Z,95410.00
2019-03-15T18:05:44.957Z,95420.00
2019-03-15T18:10:48.105Z,95410.00
2019-03-15T18:15:50.987Z,95429.00
2019-03-15T18:20:53.463Z,95407.00
2019-03-15T18:25:58.367Z,95409.00
2019-03-15T18:31:00.780Z,95420.00
2019-03-15T18:36:03.147Z,95425.00
2019-03-15T18:41:05.677Z,95395.00
2019-03-15T18:46:09.348Z,95425.00
2019-03-15T18:51:14.088Z,95385.00
2019-03-15T18:56:16.627Z,95409.00
2019-03-15T19:07:06.716Z,95433.00
2019-03-15T19:12:10.844Z,95426.00
2019-03-15T19:17:16.215Z,95420.00
2019-03-15T19:22:27.054Z,95429.00
2019-03-15T19:27:28.482Z,95388.00
2019-03-15T19:32:33.420Z,95424.00
2019-03-15T19:37:35.958Z,95435.00
2019-03-15T19:42:40.161Z,95458.00
2019-03-15T19:47:43.859Z,95429.00
2019-03-15T19:52:47.720Z,95434.00
2019-03-15T19:57:51.649Z,95420.00
2019-03-15T20:02:54.587Z,95417.00
2019-03-15T20:07:58.937Z,95432.00
2019-03-15T20:13:02.798Z,95427.00
2019-03-15T20:18:06.345Z,95442.00
2019-03-15T20:23:09.965Z,95429.00
2019-03-15T20:28:13.522Z,95441.00
2019-03-15T20:33:17.391Z,95472.00
2019-03-15T20:38:20.630Z,95458.00
2019-03-15T20:43:23.696Z,95443.00
2019-03-15T20:48:27.676Z,95464.00
2019-03-15T20:53:30.772Z,95459.00
2019-03-15T20:58:33.589Z,95463.00
2019-03-15T21:03:37.146Z,95464.00
2019-03-15T21:08:39.903Z,95451.00
2019-03-15T21:13:42.540Z,95475.00
2019-03-15T21:18:46.257Z,95491.00
2019-03-15T21:29:35.240Z,95494.00
2019-03-15T21:34:37.988Z,95504.00
2019-03-15T21:39:40.791Z,95498.00
2019-03-15T21:44:44.041Z,95489.00
2019-03-15T21:49:47.413Z,95507.00
2019-03-15T21:54:50.810Z,95507.00
2019-03-15T21:59:54.577Z,95523.00
2019-03-15T22:04:57.143Z,95529.00
2019-03-15T22:09:59.680Z,95513.00
2019-03-15T22:15:02.167Z,95515.00
2019-03-15T22:20:05.991Z,95472.00
2019-03-15T22:25:08.850Z,95516.00
2019-03-15T22:30:11.428Z,95522.00
2019-03-15T22:35:14.262Z,95514.00
2019-03-15T22:40:17.080Z,95517.00
2019-03-15T22:45:19.574Z,95507.00
2019-03-15T22:50:22.241Z,95496.00
2019-03-15T22:55:24.601Z,95482.00
2019-03-15T23:00:33.008Z,95489.00
2019-03-15T23:05:37.331Z,95528.00
2019-03-15T23:10:40.951Z,95529.00
2019-03-15T23:15:43.433Z,95499.00
2019-03-15T23:20:46.771Z,95532.00
2019-03-15T23:25:49.308Z,95497.00
2019-03-15T23:30:51.839Z,95511.00
2019-03-15T23:35:54.885Z,95498.00
2019-03-15T23:40:57.369Z,95500.00
2019-03-15T23:45:59.860Z,95479.00
2019-03-15T23:51:02.589Z,95525.00
2019-03-15T23:56:07.667Z,95533.00
